sensor_id;sensor_type;location;lat;lon;timestamp;temperature;humidity
13598;DHT22;38563;54.258;12.574;2022-10-16T00:00:43;14.30;99.90
13598;DHT22;38563;54.258;12.574;2022-10-16T00:03:10;14.30;99.90
13598;DHT22;38563;54.258;12.574;2022-10-16T00:05:39;14.30;99.90
13598;DHT22;38563;54.258;12.574;2022-10-16T00:08:07;14.30;99.90
13598;DHT22;38563;54.258;12.574;2022-10-16T00:10:34;14.20;99.90
13598;DHT22;38563;54.258;12.574;2022-10-16T00:13:01;14.30;99.90
13598;DHT22;38563;54.258;12.574;2022-10-16T00:15:28;14.30;99.90
13598;DHT22;38563;54.258;12.574;2022-10-16T00:17:55;14.30;99.90
13598;DHT22;38563;54.258;12.574;2022-10-16T00:20:22;14.30;99.90
13598;DHT22;38563;54.258;12.574;2022-10-16T00:22:48;14.30;99.90
13598;DHT22;38563;54.258;12.574;2022-10-16T00:25:16;14.30;99.90
13598;DHT22;38563;54.258;12.574;2022-10-16T00:27:43;14.30;99.90
13598;DHT22;38563;54.258;12.574;2022-10-16T00:30:10;14.20;99.90
13598;DHT22;38563;54.258;12.574;2022-10-16T00:32:37;14.20;99.90
13598;DHT22;38563;54.258;12.574;2022-10-16T00:35:04;14.10;99.90
13598;DHT22;38563;54.258;12.574;2022-10-16T00:37:31;14.10;99.90
13598;DHT22;38563;54.258;12.574;2022-10-16T00:39:58;14.00;99.90
13598;DHT22;38563;54.258;12.574;2022-10-16T00:42:26;14.00;99.90
13598;DHT22;38563;54.258;12.574;2022-10-16T00:44:55;13.90;99.90
13598;DHT22;38563;54.258;12.574;2022-10-16T00:47:27;13.80;99.90
13598;DHT22;38563;54.258;12.574;2022-10-16T00:49:59;13.80;99.90
13598;DHT22;38563;54.258;12.574;2022-10-16T00:52:26;13.80;99.90
13598;DHT22;38563;54.258;12.574;2022-10-16T00:54:54;13.80;99.90
13598;DHT22;38563;54.258;12.574;2022-10-16T00:57:21;13.80;99.90
13598;DHT22;38563;54.258;12.574;2022-10-16T00:59:50;13.80;99.90
13598;DHT22;38563;54.258;12.574;2022-10-16T01:02:17;13.80;99.90
13598;DHT22;38563;54.258;12.574;2022-10-16T01:04:46;13.80;99.90
13598;DHT22;38563;54.258;12.574;2022-10-16T01:07:20;13.90;99.90
13598;DHT22;38563;54.258;12.574;2022-10-16T01:09:59;14.00;99.90
13598;DHT22;38563;54.258;12.574;2022-10-16T01:12:36;14.00;99.90
13598;DHT22;38563;54.258;12.574;2022-10-16T01:15:13;14.00;99.90
13598;DHT22;38563;54.258;12.574;2022-10-16T01:17:48;14.00;99.90
13598;DHT22;38563;54.258;12.574;2022-10-16T01:20:22;14.00;99.90
13598;DHT22;38563;54.258;12.574;2022-10-16T01:23:05;13.90;99.90
13598;DHT22;38563;54.258;12.574;2022-10-16T01:25:59;13.90;99.90
13598;DHT22;38563;54.258;12.574;2022-10-16T01:28:38;13.90;99.90
13598;DHT22;38563;54.258;12.574;2022-10-16T01:31:05;13.90;99.90
13598;DHT22;38563;54.258;12.574;2022-10-16T01:33:35;13.80;99.90
13598;DHT22;38563;54.258;12.574;2022-10-16T01:36:09;13.70;99.90
13598;DHT22;38563;54.258;12.574;2022-10-16T01:38:38;13.60;99.90
13598;DHT22;38563;54.258;12.574;2022-10-16T01:41:09;13.60;99.90
13598;DHT22;38563;54.258;12.574;2022-10-16T01:43:41;13.60;99.90
13598;DHT22;38563;54.258;12.574;2022-10-16T01:46:10;13.50;99.90
13598;DHT22;38563;54.258;12.574;2022-10-16T01:48:39;13.50;99.90
13598;DHT22;38563;54.258;12.574;2022-10-16T01:51:08;13.40;99.90
13598;DHT22;38563;54.258;12.574;2022-10-16T01:53:36;13.40;99.90
13598;DHT22;38563;54.258;12.574;2022-10-16T01:56:07;13.40;99.90
13598;DHT22;38563;54.258;12.574;2022-10-16T01:58:40;13.30;99.90
13598;DHT22;38563;54.258;12.574;2022-10-16T02:01:09;13.30;99.90
13598;DHT22;38563;54.258;12.574;2022-10-16T02:03:40;13.30;99.90
13598;DHT22;38563;54.258;12.574;2022-10-16T02:06:08;13.30;99.90
13598;DHT22;38563;54.258;12.574;2022-10-16T02:08:36;13.30;99.90
13598;DHT22;38563;54.258;12.574;2022-10-16T02:11:04;13.30;99.90
13598;DHT22;38563;54.258;12.574;2022-10-16T02:13:35;13.30;99.90
13598;DHT22;38563;54.258;12.574;2022-10-16T02:16:06;13.30;99.90
13598;DHT22;38563;54.258;12.574;2022-10-16T02:18:33;13.30;99.90
13598;DHT22;38563;54.258;12.574;2022-10-16T02:21:04;13.30;99.90
13598;DHT22;38563;54.258;12.574;2022-10-16T02:23:37;13.30;99.90
13598;DHT22;38563;54.258;12.574;2022-10-16T02:26:12;13.30;99.90
13598;DHT22;38563;54.258;12.574;2022-10-16T02:28:43;13.30;99.90
13598;DHT22;38563;54.258;12.574;2022-10-16T02:31:16;13.30;99.90
13598;DHT22;38563;54.258;12.574;2022-10-16T02:33:46;13.20;99.90
13598;DHT22;38563;54.258;12.574;2022-10-16T02:36:13;13.20;99.90
13598;DHT22;38563;54.258;12.574;2022-10-16T02:38:40;13.10;99.90
13598;DHT22;38563;54.258;12.574;2022-10-16T02:41:06;13.10;99.90
13598;DHT22;38563;54.258;12.574;2022-10-16T02:43:34;13.10;99.90
13598;DHT22;38563;54.258;12.574;2022-10-16T02:46:01;13.00;99.90
13598;DHT22;38563;54.258;12.574;2022-10-16T02:48:29;13.00;99.90
13598;DHT22;38563;54.258;12.574;2022-10-16T02:50:56;13.00;99.90
13598;DHT22;38563;54.258;12.574;2022-10-16T02:53:23;13.00;99.90
13598;DHT22;38563;54.258;12.574;2022-10-16T02:55:49;13.00;99.90
13598;DHT22;38563;54.258;12.574;2022-10-16T02:58:16;13.00;99.90
13598;DHT22;38563;54.258;12.574;2022-10-16T03:00:43;13.00;99.90
13598;DHT22;38563;54.258;12.574;2022-10-16T03:03:10;13.00;99.90
13598;DHT22;38563;54.258;12.574;2022-10-16T03:05:38;13.00;99.90
13598;DHT22;38563;54.258;12.574;2022-10-16T03:08:05;13.00;99.90
13598;DHT22;38563;54.258;12.574;2022-10-16T03:10:32;13.00;99.90
13598;DHT22;38563;54.258;12.574;2022-10-16T03:12:58;13.00;99.90
13598;DHT22;38563;54.258;12.574;2022-10-16T03:15:25;13.10;99.90
13598;DHT22;38563;54.258;12.574;2022-10-16T03:17:53;13.10;99.90
13598;DHT22;38563;54.258;12.574;2022-10-16T03:20:20;13.10;99.90
13598;DHT22;38563;54.258;12.574;2022-10-16T03:22:48;13.10;99.90
13598;DHT22;38563;54.258;12.574;2022-10-16T03:25:15;13.10;99.90
13598;DHT22;38563;54.258;12.574;2022-10-16T03:27:42;13.10;99.90
13598;DHT22;38563;54.258;12.574;2022-10-16T03:30:09;13.10;99.90
13598;DHT22;38563;54.258;12.574;2022-10-16T03:32:36;13.10;99.90
13598;DHT22;38563;54.258;12.574;2022-10-16T03:35:03;13.00;99.90
13598;DHT22;38563;54.258;12.574;2022-10-16T03:37:30;13.00;99.90
13598;DHT22;38563;54.258;12.574;2022-10-16T03:39:58;13.00;99.90
13598;DHT22;38563;54.258;12.574;2022-10-16T03:42:25;13.10;99.90
13598;DHT22;38563;54.258;12.574;2022-10-16T03:44:52;13.00;99.90
13598;DHT22;38563;54.258;12.574;2022-10-16T03:47:18;13.10;99.90
13598;DHT22;38563;54.258;12.574;2022-10-16T03:49:47;13.10;99.90
13598;DHT22;38563;54.258;12.574;2022-10-16T03:52:14;13.10;99.90
13598;DHT22;38563;54.258;12.574;2022-10-16T03:54:40;13.10;99.90
13598;DHT22;38563;54.258;12.574;2022-10-16T03:57:08;13.00;99.90
13598;DHT22;38563;54.258;12.574;2022-10-16T03:59:35;13.00;99.90
13598;DHT22;38563;54.258;12.574;2022-10-16T04:02:02;13.00;99.90
13598;DHT22;38563;54.258;12.574;2022-10-16T04:04:28;12.90;99.90
13598;DHT22;38563;54.258;12.574;2022-10-16T04:06:55;12.90;99.90
13598;DHT22;38563;54.258;12.574;2022-10-16T04:09:22;12.90;99.90
13598;DHT22;38563;54.258;12.574;2022-10-16T04:11:48;12.90;99.90
13598;DHT22;38563;54.258;12.574;2022-10-16T04:14:17;12.90;99.90
13598;DHT22;38563;54.258;12.574;2022-10-16T04:16:44;12.80;99.90
13598;DHT22;38563;54.258;12.574;2022-10-16T04:19:11;12.80;99.90
13598;DHT22;38563;54.258;12.574;2022-10-16T04:21:38;12.80;99.90
13598;DHT22;38563;54.258;12.574;2022-10-16T04:24:04;12.80;99.90
13598;DHT22;38563;54.258;12.574;2022-10-16T04:26:31;12.80;99.90
13598;DHT22;38563;54.258;12.574;2022-10-16T04:28:58;12.70;99.90
13598;DHT22;38563;54.258;12.574;2022-10-16T04:31:26;12.70;99.90
13598;DHT22;38563;54.258;12.574;2022-10-16T04:33:53;12.70;99.90
13598;DHT22;38563;54.258;12.574;2022-10-16T04:36:19;12.60;99.90
13598;DHT22;38563;54.258;12.574;2022-10-16T04:38:46;12.50;99.90
13598;DHT22;38563;54.258;12.574;2022-10-16T04:41:13;12.40;99.90
13598;DHT22;38563;54.258;12.574;2022-10-16T04:43:39;12.40;99.90
13598;DHT22;38563;54.258;12.574;2022-10-16T04:46:06;12.40;99.90
13598;DHT22;38563;54.258;12.574;2022-10-16T04:48:34;12.30;99.90
13598;DHT22;38563;54.258;12.574;2022-10-16T04:51:01;12.30;99.90
13598;DHT22;38563;54.258;12.574;2022-10-16T04:53:28;12.30;99.90
13598;DHT22;38563;54.258;12.574;2022-10-16T04:55:54;12.20;99.90
13598;DHT22;38563;54.258;12.574;2022-10-16T04:58:22;12.20;99.90
13598;DHT22;38563;54.258;12.574;2022-10-16T05:00:48;12.20;99.90
13598;DHT22;38563;54.258;12.574;2022-10-16T05:03:15;12.10;99.90
13598;DHT22;38563;54.258;12.574;2022-10-16T05:05:44;12.10;99.90
13598;DHT22;38563;54.258;12.574;2022-10-16T05:08:11;12.10;99.90
13598;DHT22;38563;54.258;12.574;2022-10-16T05:10:38;12.10;99.90
13598;DHT22;38563;54.258;12.574;2022-10-16T05:13:05;12.10;99.90
13598;DHT22;38563;54.258;12.574;2022-10-16T05:15:32;12.10;99.90
13598;DHT22;38563;54.258;12.574;2022-10-16T05:17:59;12.10;99.90
13598;DHT22;38563;54.258;12.574;2022-10-16T05:20:26;12.10;99.90
13598;DHT22;38563;54.258;12.574;2022-10-16T05:22:54;12.10;99.90
13598;DHT22;38563;54.258;12.574;2022-10-16T05:25:20;12.10;99.90
13598;DHT22;38563;54.258;12.574;2022-10-16T05:27:47;12.10;99.90
13598;DHT22;38563;54.258;12.574;2022-10-16T05:30:14;12.10;99.90
13598;DHT22;38563;54.258;12.574;2022-10-16T05:32:41;12.10;99.90
13598;DHT22;38563;54.258;12.574;2022-10-16T05:35:08;12.10;99.90
13598;DHT22;38563;54.258;12.574;2022-10-16T05:37:35;12.20;99.90
13598;DHT22;38563;54.258;12.574;2022-10-16T05:40:03;12.10;99.90
13598;DHT22;38563;54.258;12.574;2022-10-16T05:42:30;12.10;99.90
13598;DHT22;38563;54.258;12.574;2022-10-16T05:44:57;12.10;99.90
13598;DHT22;38563;54.258;12.574;2022-10-16T05:47:23;12.10;99.90
13598;DHT22;38563;54.258;12.574;2022-10-16T05:49:50;12.10;99.90
13598;DHT22;38563;54.258;12.574;2022-10-16T05:52:17;12.00;99.90
13598;DHT22;38563;54.258;12.574;2022-10-16T05:54:43;12.00;99.90
13598;DHT22;38563;54.258;12.574;2022-10-16T05:57:11;12.00;99.90
13598;DHT22;38563;54.258;12.574;2022-10-16T05:59:38;12.10;99.90
13598;DHT22;38563;54.258;12.574;2022-10-16T06:02:05;12.10;99.90
13598;DHT22;38563;54.258;12.574;2022-10-16T06:04:32;12.10;99.90
13598;DHT22;38563;54.258;12.574;2022-10-16T06:06:59;12.20;99.90
13598;DHT22;38563;54.258;12.574;2022-10-16T06:09:26;12.20;99.90
13598;DHT22;38563;54.258;12.574;2022-10-16T06:11:53;12.20;99.90
13598;DHT22;38563;54.258;12.574;2022-10-16T06:14:21;12.20;99.90
13598;DHT22;38563;54.258;12.574;2022-10-16T06:16:48;12.20;99.90
13598;DHT22;38563;54.258;12.574;2022-10-16T06:19:14;12.20;99.90
13598;DHT22;38563;54.258;12.574;2022-10-16T06:21:41;12.20;99.90
13598;DHT22;38563;54.258;12.574;2022-10-16T06:24:09;12.20;99.90
13598;DHT22;38563;54.258;12.574;2022-10-16T06:26:36;12.30;99.90
13598;DHT22;38563;54.258;12.574;2022-10-16T06:29:03;12.30;99.90
13598;DHT22;38563;54.258;12.574;2022-10-16T06:31:31;12.40;99.90
13598;DHT22;38563;54.258;12.574;2022-10-16T06:33:59;12.40;99.90
13598;DHT22;38563;54.258;12.574;2022-10-16T06:36:26;12.50;99.90
13598;DHT22;38563;54.258;12.574;2022-10-16T06:38:53;12.50;99.90
13598;DHT22;38563;54.258;12.574;2022-10-16T06:41:22;12.60;99.90
13598;DHT22;38563;54.258;12.574;2022-10-16T06:43:49;12.50;99.90
13598;DHT22;38563;54.258;12.574;2022-10-16T06:46:17;12.60;99.90
13598;DHT22;38563;54.258;12.574;2022-10-16T06:48:46;12.60;99.90
13598;DHT22;38563;54.258;12.574;2022-10-16T06:51:15;12.70;99.90
13598;DHT22;38563;54.258;12.574;2022-10-16T06:53:43;12.70;99.90
13598;DHT22;38563;54.258;12.574;2022-10-16T06:56:11;12.80;99.90
13598;DHT22;38563;54.258;12.574;2022-10-16T06:58:39;12.80;99.90
13598;DHT22;38563;54.258;12.574;2022-10-16T07:01:06;12.80;99.90
13598;DHT22;38563;54.258;12.574;2022-10-16T07:03:36;12.80;99.90
13598;DHT22;38563;54.258;12.574;2022-10-16T07:06:05;12.90;99.90
13598;DHT22;38563;54.258;12.574;2022-10-16T07:08:33;12.90;99.90
13598;DHT22;38563;54.258;12.574;2022-10-16T07:11:00;12.90;99.90
13598;DHT22;38563;54.258;12.574;2022-10-16T07:13:27;12.90;99.90
13598;DHT22;38563;54.258;12.574;2022-10-16T07:15:54;13.00;99.90
13598;DHT22;38563;54.258;12.574;2022-10-16T07:18:21;13.00;99.90
13598;DHT22;38563;54.258;12.574;2022-10-16T07:20:52;13.10;99.90
13598;DHT22;38563;54.258;12.574;2022-10-16T07:23:20;13.10;99.90
13598;DHT22;38563;54.258;12.574;2022-10-16T07:25:53;13.10;99.90
13598;DHT22;38563;54.258;12.574;2022-10-16T07:28:20;13.20;99.90
13598;DHT22;38563;54.258;12.574;2022-10-16T07:30:47;13.30;99.90
13598;DHT22;38563;54.258;12.574;2022-10-16T07:33:14;13.30;99.90
13598;DHT22;38563;54.258;12.574;2022-10-16T07:35:47;13.40;99.90
13598;DHT22;38563;54.258;12.574;2022-10-16T07:38:14;13.40;99.90
13598;DHT22;38563;54.258;12.574;2022-10-16T07:40:42;13.50;99.90
13598;DHT22;38563;54.258;12.574;2022-10-16T07:43:09;13.60;99.90
13598;DHT22;38563;54.258;12.574;2022-10-16T07:45:36;13.70;99.90
13598;DHT22;38563;54.258;12.574;2022-10-16T07:48:03;13.80;99.90
13598;DHT22;38563;54.258;12.574;2022-10-16T07:50:30;13.90;99.90
13598;DHT22;38563;54.258;12.574;2022-10-16T07:52:56;14.00;99.90
13598;DHT22;38563;54.258;12.574;2022-10-16T07:55:23;14.10;99.90
13598;DHT22;38563;54.258;12.574;2022-10-16T07:57:51;14.10;99.90
13598;DHT22;38563;54.258;12.574;2022-10-16T08:00:18;14.10;99.90
13598;DHT22;38563;54.258;12.574;2022-10-16T08:02:44;14.20;99.90
13598;DHT22;38563;54.258;12.574;2022-10-16T08:05:11;14.20;99.90
13598;DHT22;38563;54.258;12.574;2022-10-16T08:07:38;14.20;99.90
13598;DHT22;38563;54.258;12.574;2022-10-16T08:10:05;14.30;99.90
13598;DHT22;38563;54.258;12.574;2022-10-16T08:12:32;14.30;99.90
13598;DHT22;38563;54.258;12.574;2022-10-16T08:15:00;14.40;99.90
13598;DHT22;38563;54.258;12.574;2022-10-16T08:17:27;14.50;99.90
13598;DHT22;38563;54.258;12.574;2022-10-16T08:19:53;14.60;99.90
13598;DHT22;38563;54.258;12.574;2022-10-16T08:22:20;14.80;99.90
13598;DHT22;38563;54.258;12.574;2022-10-16T08:24:47;14.90;99.90
13598;DHT22;38563;54.258;12.574;2022-10-16T08:27:13;15.00;99.90
13598;DHT22;38563;54.258;12.574;2022-10-16T08:29:40;15.00;99.90
13598;DHT22;38563;54.258;12.574;2022-10-16T08:32:08;15.00;99.90
13598;DHT22;38563;54.258;12.574;2022-10-16T08:34:35;15.10;99.90
13598;DHT22;38563;54.258;12.574;2022-10-16T08:37:02;15.10;99.90
13598;DHT22;38563;54.258;12.574;2022-10-16T08:39:28;15.10;99.90
13598;DHT22;38563;54.258;12.574;2022-10-16T08:42:15;15.00;99.90
13598;DHT22;38563;54.258;12.574;2022-10-16T08:45:02;15.00;99.90
13598;DHT22;38563;54.258;12.574;2022-10-16T08:47:44;14.90;99.90
13598;DHT22;38563;54.258;12.574;2022-10-16T08:50:13;15.00;99.90
13598;DHT22;38563;54.258;12.574;2022-10-16T08:52:43;15.10;99.90
13598;DHT22;38563;54.258;12.574;2022-10-16T08:55:28;15.10;99.90
13598;DHT22;38563;54.258;12.574;2022-10-16T08:57:55;15.20;99.90
13598;DHT22;38563;54.258;12.574;2022-10-16T09:00:22;15.20;99.90
13598;DHT22;38563;54.258;12.574;2022-10-16T09:02:53;15.20;99.90
13598;DHT22;38563;54.258;12.574;2022-10-16T09:05:34;15.20;99.90
13598;DHT22;38563;54.258;12.574;2022-10-16T09:08:11;15.10;99.90
13598;DHT22;38563;54.258;12.574;2022-10-16T09:10:45;15.20;99.90
13598;DHT22;38563;54.258;12.574;2022-10-16T09:13:19;15.20;99.90
13598;DHT22;38563;54.258;12.574;2022-10-16T09:15:53;15.20;99.90
13598;DHT22;38563;54.258;12.574;2022-10-16T09:18:27;15.10;99.90
13598;DHT22;38563;54.258;12.574;2022-10-16T09:21:00;15.10;99.90
13598;DHT22;38563;54.258;12.574;2022-10-16T09:23:30;15.10;99.90
13598;DHT22;38563;54.258;12.574;2022-10-16T09:25:58;15.10;99.90
13598;DHT22;38563;54.258;12.574;2022-10-16T09:28:25;15.10;99.90
13598;DHT22;38563;54.258;12.574;2022-10-16T09:30:52;15.10;99.90
13598;DHT22;38563;54.258;12.574;2022-10-16T09:33:23;15.10;99.90
13598;DHT22;38563;54.258;12.574;2022-10-16T09:35:53;15.10;99.90
13598;DHT22;38563;54.258;12.574;2022-10-16T09:38:23;15.10;99.90
13598;DHT22;38563;54.258;12.574;2022-10-16T09:40:50;15.10;99.90
13598;DHT22;38563;54.258;12.574;2022-10-16T09:43:22;15.20;99.90
13598;DHT22;38563;54.258;12.574;2022-10-16T09:45:55;15.20;99.90
13598;DHT22;38563;54.258;12.574;2022-10-16T09:48:25;15.20;99.90
13598;DHT22;38563;54.258;12.574;2022-10-16T09:50:56;15.10;99.90
13598;DHT22;38563;54.258;12.574;2022-10-16T09:53:23;15.10;99.90
13598;DHT22;38563;54.258;12.574;2022-10-16T09:55:51;15.20;99.90
13598;DHT22;38563;54.258;12.574;2022-10-16T09:58:20;15.20;99.90
13598;DHT22;38563;54.258;12.574;2022-10-16T10:00:52;15.30;99.90
13598;DHT22;38563;54.258;12.574;2022-10-16T10:03:34;15.50;99.90
13598;DHT22;38563;54.258;12.574;2022-10-16T10:06:06;15.70;99.90
13598;DHT22;38563;54.258;12.574;2022-10-16T10:08:33;15.90;99.90
13598;DHT22;38563;54.258;12.574;2022-10-16T10:11:00;16.00;99.90
13598;DHT22;38563;54.258;12.574;2022-10-16T10:13:26;16.20;99.90
13598;DHT22;38563;54.258;12.574;2022-10-16T10:15:54;16.20;99.90
13598;DHT22;38563;54.258;12.574;2022-10-16T10:18:22;16.30;99.90
13598;DHT22;38563;54.258;12.574;2022-10-16T10:20:58;16.30;99.90
13598;DHT22;38563;54.258;12.574;2022-10-16T10:23:27;16.40;99.90
13598;DHT22;38563;54.258;12.574;2022-10-16T10:25:59;16.50;99.90
13598;DHT22;38563;54.258;12.574;2022-10-16T10:28:41;16.60;99.90
13598;DHT22;38563;54.258;12.574;2022-10-16T10:31:17;16.70;99.90
13598;DHT22;38563;54.258;12.574;2022-10-16T10:33:52;16.80;99.90
13598;DHT22;38563;54.258;12.574;2022-10-16T10:36:29;16.80;99.90
13598;DHT22;38563;54.258;12.574;2022-10-16T10:38:58;16.90;99.90
13598;DHT22;38563;54.258;12.574;2022-10-16T10:44:42;17.10;99.90
13598;DHT22;38563;54.258;12.574;2022-10-16T10:47:22;17.20;99.90
13598;DHT22;38563;54.258;12.574;2022-10-16T10:49:57;17.30;99.90
13598;DHT22;38563;54.258;12.574;2022-10-16T10:52:41;17.30;99.90
13598;DHT22;38563;54.258;12.574;2022-10-16T10:55:16;17.40;99.90
13598;DHT22;38563;54.258;12.574;2022-10-16T10:57:56;17.30;99.90
13598;DHT22;38563;54.258;12.574;2022-10-16T11:00:31;17.30;99.90
13598;DHT22;38563;54.258;12.574;2022-10-16T11:03:06;17.40;99.90
13598;DHT22;38563;54.258;12.574;2022-10-16T11:05:40;17.40;99.90
13598;DHT22;38563;54.258;12.574;2022-10-16T11:08:14;17.50;99.90
13598;DHT22;38563;54.258;12.574;2022-10-16T11:10:47;17.50;99.90
13598;DHT22;38563;54.258;12.574;2022-10-16T11:13:23;17.50;99.90
13598;DHT22;38563;54.258;12.574;2022-10-16T11:15:55;17.50;99.90
13598;DHT22;38563;54.258;12.574;2022-10-16T11:18:27;17.60;99.90
13598;DHT22;38563;54.258;12.574;2022-10-16T11:21:01;17.50;99.90
13598;DHT22;38563;54.258;12.574;2022-10-16T11:23:34;17.50;99.90
13598;DHT22;38563;54.258;12.574;2022-10-16T11:26:05;17.50;99.90
13598;DHT22;38563;54.258;12.574;2022-10-16T11:28:38;17.50;99.90
13598;DHT22;38563;54.258;12.574;2022-10-16T11:31:13;17.70;99.90
13598;DHT22;38563;54.258;12.574;2022-10-16T11:33:45;17.70;99.90
13598;DHT22;38563;54.258;12.574;2022-10-16T11:36:16;17.70;99.90
13598;DHT22;38563;54.258;12.574;2022-10-16T11:38:50;17.70;99.90
13598;DHT22;38563;54.258;12.574;2022-10-16T11:41:24;17.80;99.90
13598;DHT22;38563;54.258;12.574;2022-10-16T11:44:03;17.80;99.90
13598;DHT22;38563;54.258;12.574;2022-10-16T11:46:34;17.80;99.90
13598;DHT22;38563;54.258;12.574;2022-10-16T11:49:08;17.90;99.90
13598;DHT22;38563;54.258;12.574;2022-10-16T11:51:39;18.00;99.90
13598;DHT22;38563;54.258;12.574;2022-10-16T11:54:16;18.10;99.90
13598;DHT22;38563;54.258;12.574;2022-10-16T11:56:49;18.10;99.90
13598;DHT22;38563;54.258;12.574;2022-10-16T11:59:22;18.20;99.90
13598;DHT22;38563;54.258;12.574;2022-10-16T12:01:56;18.20;99.90
13598;DHT22;38563;54.258;12.574;2022-10-16T12:04:31;18.20;99.90
13598;DHT22;38563;54.258;12.574;2022-10-16T12:07:04;18.20;99.90
13598;DHT22;38563;54.258;12.574;2022-10-16T12:09:36;18.20;99.90
13598;DHT22;38563;54.258;12.574;2022-10-16T12:12:04;18.20;99.90
13598;DHT22;38563;54.258;12.574;2022-10-16T12:14:37;18.20;99.90
13598;DHT22;38563;54.258;12.574;2022-10-16T12:17:24;18.20;99.90
13598;DHT22;38563;54.258;12.574;2022-10-16T12:20:00;18.20;99.90
13598;DHT22;38563;54.258;12.574;2022-10-16T12:22:29;18.30;99.90
13598;DHT22;38563;54.258;12.574;2022-10-16T12:24:58;18.30;99.90
13598;DHT22;38563;54.258;12.574;2022-10-16T12:27:28;18.30;99.90
13598;DHT22;38563;54.258;12.574;2022-10-16T12:29:58;18.50;99.90
13598;DHT22;38563;54.258;12.574;2022-10-16T12:32:32;18.50;99.90
13598;DHT22;38563;54.258;12.574;2022-10-16T12:35:00;18.50;99.90
13598;DHT22;38563;54.258;12.574;2022-10-16T12:37:29;18.50;99.90
13598;DHT22;38563;54.258;12.574;2022-10-16T12:39:59;18.40;99.90
13598;DHT22;38563;54.258;12.574;2022-10-16T12:42:37;18.40;99.90
13598;DHT22;38563;54.258;12.574;2022-10-16T12:45:24;18.50;99.90
13598;DHT22;38563;54.258;12.574;2022-10-16T12:47:53;18.50;99.90
13598;DHT22;38563;54.258;12.574;2022-10-16T12:50:33;18.50;99.90
13598;DHT22;38563;54.258;12.574;2022-10-16T12:53:02;18.50;99.90
13598;DHT22;38563;54.258;12.574;2022-10-16T12:55:35;18.40;99.90
13598;DHT22;38563;54.258;12.574;2022-10-16T12:58:16;18.40;99.90
13598;DHT22;38563;54.258;12.574;2022-10-16T13:00:48;18.40;99.90
13598;DHT22;38563;54.258;12.574;2022-10-16T13:03:44;18.50;99.90
13598;DHT22;38563;54.258;12.574;2022-10-16T13:06:19;18.60;99.90
13598;DHT22;38563;54.258;12.574;2022-10-16T13:09:02;18.70;99.90
13598;DHT22;38563;54.258;12.574;2022-10-16T13:11:45;18.80;99.90
13598;DHT22;38563;54.258;12.574;2022-10-16T13:14:25;18.70;99.90
13598;DHT22;38563;54.258;12.574;2022-10-16T13:17:03;18.70;99.90
13598;DHT22;38563;54.258;12.574;2022-10-16T13:19:36;18.60;99.90
13598;DHT22;38563;54.258;12.574;2022-10-16T13:22:16;18.50;99.90
13598;DHT22;38563;54.258;12.574;2022-10-16T13:24:56;18.60;99.90
13598;DHT22;38563;54.258;12.574;2022-10-16T13:27:35;18.60;99.90
13598;DHT22;38563;54.258;12.574;2022-10-16T13:30:12;18.70;99.90
13598;DHT22;38563;54.258;12.574;2022-10-16T13:32:40;18.50;99.90
13598;DHT22;38563;54.258;12.574;2022-10-16T13:35:20;18.30;99.90
13598;DHT22;38563;54.258;12.574;2022-10-16T13:37:47;18.20;99.90
13598;DHT22;38563;54.258;12.574;2022-10-16T13:40:19;18.30;99.90
13598;DHT22;38563;54.258;12.574;2022-10-16T13:42:48;18.40;99.90
13598;DHT22;38563;54.258;12.574;2022-10-16T13:45:19;18.40;99.90
13598;DHT22;38563;54.258;12.574;2022-10-16T13:47:46;18.40;99.90
13598;DHT22;38563;54.258;12.574;2022-10-16T13:50:14;18.30;99.90
13598;DHT22;38563;54.258;12.574;2022-10-16T13:52:41;18.30;99.90
13598;DHT22;38563;54.258;12.574;2022-10-16T13:55:11;18.30;99.90
13598;DHT22;38563;54.258;12.574;2022-10-16T13:57:38;18.30;99.90
13598;DHT22;38563;54.258;12.574;2022-10-16T14:00:19;18.30;99.90
13598;DHT22;38563;54.258;12.574;2022-10-16T14:02:51;18.30;99.90
13598;DHT22;38563;54.258;12.574;2022-10-16T14:05:18;18.20;99.90
13598;DHT22;38563;54.258;12.574;2022-10-16T14:07:49;18.20;99.90
13598;DHT22;38563;54.258;12.574;2022-10-16T14:10:22;18.20;99.90
13598;DHT22;38563;54.258;12.574;2022-10-16T14:12:57;18.10;99.90
13598;DHT22;38563;54.258;12.574;2022-10-16T14:15:26;18.00;99.90
13598;DHT22;38563;54.258;12.574;2022-10-16T14:17:53;17.80;99.90
13598;DHT22;38563;54.258;12.574;2022-10-16T14:20:24;17.80;99.90
13598;DHT22;38563;54.258;12.574;2022-10-16T14:22:59;17.70;99.90
13598;DHT22;38563;54.258;12.574;2022-10-16T14:25:28;17.70;99.90
13598;DHT22;38563;54.258;12.574;2022-10-16T14:28:01;17.70;99.90
13598;DHT22;38563;54.258;12.574;2022-10-16T14:30:32;17.80;99.90
13598;DHT22;38563;54.258;12.574;2022-10-16T14:33:00;17.80;99.90
13598;DHT22;38563;54.258;12.574;2022-10-16T14:35:30;17.90;99.90
13598;DHT22;38563;54.258;12.574;2022-10-16T14:37:59;17.90;99.90
13598;DHT22;38563;54.258;12.574;2022-10-16T14:40:29;17.90;99.90
13598;DHT22;38563;54.258;12.574;2022-10-16T14:42:56;17.70;99.90
13598;DHT22;38563;54.258;12.574;2022-10-16T14:45:26;17.40;99.90
13598;DHT22;38563;54.258;12.574;2022-10-16T14:47:57;17.20;99.90
13598;DHT22;38563;54.258;12.574;2022-10-16T14:50:24;17.10;99.90
13598;DHT22;38563;54.258;12.574;2022-10-16T14:52:51;17.00;99.90
13598;DHT22;38563;54.258;12.574;2022-10-16T14:55:18;17.00;99.90
13598;DHT22;38563;54.258;12.574;2022-10-16T14:57:45;16.90;99.90
13598;DHT22;38563;54.258;12.574;2022-10-16T15:00:17;16.80;99.90
13598;DHT22;38563;54.258;12.574;2022-10-16T15:02:44;16.80;99.90
13598;DHT22;38563;54.258;12.574;2022-10-16T15:05:16;16.70;99.90
13598;DHT22;38563;54.258;12.574;2022-10-16T15:07:43;16.70;99.90
13598;DHT22;38563;54.258;12.574;2022-10-16T15:10:10;16.70;99.90
13598;DHT22;38563;54.258;12.574;2022-10-16T15:12:37;16.60;99.90
13598;DHT22;38563;54.258;12.574;2022-10-16T15:15:23;16.60;99.90
13598;DHT22;38563;54.258;12.574;2022-10-16T15:17:52;16.70;99.90
13598;DHT22;38563;54.258;12.574;2022-10-16T15:20:23;16.70;99.90
13598;DHT22;38563;54.258;12.574;2022-10-16T15:22:50;16.70;99.90
13598;DHT22;38563;54.258;12.574;2022-10-16T15:25:31;16.60;99.90
13598;DHT22;38563;54.258;12.574;2022-10-16T15:27:58;16.50;99.90
13598;DHT22;38563;54.258;12.574;2022-10-16T15:30:25;16.40;99.90
13598;DHT22;38563;54.258;12.574;2022-10-16T15:32:52;16.30;99.90
13598;DHT22;38563;54.258;12.574;2022-10-16T15:35:19;16.10;99.90